Farmersville, OH

3:07 PM EST on November 11, 2019 (GMT -0500)
German Township | | Change Station
Active Advisory: Winter Weather Advisory

Elev 948 ft 39.63 °N, 84.47 °W | Updated 4 minutes ago

Overcast
Overcast
34.3 °F
Feels Like 26 °F
N
11.4
Wind Variable Wind from NNW
Gusts 12.5 mph

Today
High -- | Low -- °F
--% Chance of Precip.
Yesterday
High -- | Low -- °F
Precip. -- in
Pressure 29.98 in
Visibility 10.0 miles
Clouds Overcast 1200 ft
Windchill 26 °F
Dew Point 32 °F
Humidity 90%
Rainfall 0.07 in
Snow Depth Not available.
7:17 AM 5:25 PM
Waxing Gibbous, 99% visible
METAR KMWO 111955Z AUTO 34016G24KT 10SM -RA OVC012 04/02 A2998 RMK AO2 T00370020
Pressure 29.98 in
Visibility 10.0 miles
Clouds Overcast 1200 ft
Windchill 26 °F
Dew Point 32 °F
Humidity 90%
Rainfall 0.07 in
Snow Depth Not available.
7:17 AM 5:25 PM
Waxing Gibbous, 99% visible
METAR KMWO 111955Z AUTO 34016G24KT 10SM -RA OVC012 04/02 A2998 RMK AO2 T00370020

Get Your Daily Forecast Email!

Thanks for signing up!

Be on the lookout for a verification email in your inbox.

You'll start receiving severe weather alerts in your inbox..

×

10-Day Weather Forecast

Almanac

Astronomy

Nov. 11, 2019 Rise Set
Actual Time
Civil Twilight
Nautical Twilight
Astronomical Twilight
Moon
Length of Visible Light
Length of Day
Tomorrow will be .
, % of the Moon is Illuminated

Today's Extremes

State Highs State Lows

Community

WunderPhotos

Category 6

Welcome to Category 6. This is the collective home for Weather Underground's featured writeups by Dr. Jeff Masters (right), Bob Henson (left), Chris Burt, and other regular contributors.

Nearby

Air Quality

  Air Quality AQ Index Pollutant
Not available.

Snow Depth

Station Depth Elevation

Earthquake Activity

City Distance Mag. Time & Date
Minimum magnitude displayed is 2.5.

Coastal Water Temperatures

Place Temperature

Stations

Nearby Weather Stations

Station Location Temp. Windchill Dew Point Humidity Wind Precip. Elev Updated Type
                   

Watches & Warnings

Winter Weather Advisory
Issued: 3:05 PM EST Nov. 11, 2019 – National Weather Service

... Winter Weather Advisory remains in effect until 8 am EST
Tuesday...

* what... snow expected. Total snow accumulations 1 to 3 inches.

* Where... portions of east central and southeast Indiana,
northeast and northern Kentucky and central, south central,
southwest and west central Ohio.

* When... until 8 am EST Tuesday.

* Impacts... plan on slippery Road conditions. The hazardous
conditions could impact the morning or evening commute.

* Additional details... temperatures will fall quickly this
evening allowing for the potential for slick conditions on
roadways. Roadways may remain slick even after snow has
decreased in coverage due to falling temperatures.

Precautionary/preparedness actions...

Slow down and use caution while traveling.

Additional information can be found at www.Weather.Gov/iln as
well as on our facebook and twitter pages.